sensor_id;sensor_type;location;lat;lon;timestamp;P1;durP1;ratioP1;P2;durP2;ratioP2
75548;SDS011;64133;56.002;37.208;2022-11-15T00:02:32;3.67;;;0.50;;
75548;SDS011;64133;56.002;37.208;2022-11-15T00:07:37;1.70;;;0.93;;
75548;SDS011;64133;56.002;37.208;2022-11-15T00:12:42;5.67;;;0.53;;
75548;SDS011;64133;56.002;37.208;2022-11-15T00:17:49;3.75;;;0.80;;
75548;SDS011;64133;56.002;37.208;2022-11-15T00:22:54;12.05;;;0.98;;
75548;SDS011;64133;56.002;37.208;2022-11-15T00:27:59;3.00;;;0.70;;
75548;SDS011;64133;56.002;37.208;2022-11-15T00:33:04;3.83;;;0.85;;
75548;SDS011;64133;56.002;37.208;2022-11-15T00:38:09;2.00;;;0.47;;
75548;SDS011;64133;56.002;37.208;2022-11-15T00:43:14;3.80;;;0.80;;
75548;SDS011;64133;56.002;37.208;2022-11-15T00:48:18;3.77;;;0.72;;
75548;SDS011;64133;56.002;37.208;2022-11-15T00:53:23;3.08;;;0.80;;
75548;SDS011;64133;56.002;37.208;2022-11-15T00:58:28;2.30;;;0.90;;
75548;SDS011;64133;56.002;37.208;2022-11-15T01:03:33;3.58;;;0.70;;
75548;SDS011;64133;56.002;37.208;2022-11-15T01:08:41;2.40;;;0.55;;
75548;SDS011;64133;56.002;37.208;2022-11-15T01:13:46;4.65;;;1.10;;
75548;SDS011;64133;56.002;37.208;2022-11-15T01:18:51;1.50;;;0.68;;
75548;SDS011;64133;56.002;37.208;2022-11-15T01:23:56;5.17;;;0.60;;
75548;SDS011;64133;56.002;37.208;2022-11-15T01:29:01;2.08;;;0.45;;
75548;SDS011;64133;56.002;37.208;2022-11-15T01:34:06;5.42;;;0.68;;
75548;SDS011;64133;56.002;37.208;2022-11-15T01:39:11;1.80;;;1.10;;
75548;SDS011;64133;56.002;37.208;2022-11-15T01:54:50;2.42;;;0.55;;
75548;SDS011;64133;56.002;37.208;2022-11-15T01:59:54;2.22;;;0.53;;
75548;SDS011;64133;56.002;37.208;2022-11-15T02:04:59;7.87;;;0.90;;
75548;SDS011;64133;56.002;37.208;2022-11-15T02:10:06;6.75;;;1.05;;
75548;SDS011;64133;56.002;37.208;2022-11-15T02:15:11;1.77;;;0.78;;
75548;SDS011;64133;56.002;37.208;2022-11-15T02:20:30;5.40;;;1.60;;
75548;SDS011;64133;56.002;37.208;2022-11-15T02:25:53;1.47;;;0.93;;
75548;SDS011;64133;56.002;37.208;2022-11-15T02:31:00;3.33;;;0.88;;
75548;SDS011;64133;56.002;37.208;2022-11-15T02:36:06;11.60;;;0.80;;
75548;SDS011;64133;56.002;37.208;2022-11-15T02:41:11;4.50;;;0.72;;
75548;SDS011;64133;56.002;37.208;2022-11-15T02:46:16;2.25;;;0.80;;
75548;SDS011;64133;56.002;37.208;2022-11-15T02:51:20;4.25;;;0.75;;
75548;SDS011;64133;56.002;37.208;2022-11-15T02:56:25;4.40;;;0.65;;
75548;SDS011;64133;56.002;37.208;2022-11-15T03:01:34;3.00;;;0.60;;
75548;SDS011;64133;56.002;37.208;2022-11-15T03:06:41;3.05;;;0.93;;
75548;SDS011;64133;56.002;37.208;2022-11-15T03:11:46;6.33;;;0.82;;
75548;SDS011;64133;56.002;37.208;2022-11-15T03:16:53;6.17;;;0.72;;
75548;SDS011;64133;56.002;37.208;2022-11-15T03:21:56;1.62;;;0.62;;
75548;SDS011;64133;56.002;37.208;2022-11-15T03:27:02;6.50;;;0.80;;
75548;SDS011;64133;56.002;37.208;2022-11-15T03:32:07;2.90;;;0.68;;
75548;SDS011;64133;56.002;37.208;2022-11-15T03:37:12;12.50;;;1.02;;
75548;SDS011;64133;56.002;37.208;2022-11-15T03:42:20;6.33;;;1.07;;
75548;SDS011;64133;56.002;37.208;2022-11-15T03:47:25;8.05;;;1.57;;
75548;SDS011;64133;56.002;37.208;2022-11-15T03:52:31;1.87;;;0.70;;
75548;SDS011;64133;56.002;37.208;2022-11-15T03:57:35;2.20;;;0.78;;
75548;SDS011;64133;56.002;37.208;2022-11-15T04:02:40;9.18;;;1.27;;
75548;SDS011;64133;56.002;37.208;2022-11-15T04:07:46;2.35;;;0.65;;
75548;SDS011;64133;56.002;37.208;2022-11-15T04:12:51;2.47;;;0.80;;
75548;SDS011;64133;56.002;37.208;2022-11-15T04:17:56;4.25;;;1.20;;
75548;SDS011;64133;56.002;37.208;2022-11-15T04:23:01;6.12;;;0.72;;
75548;SDS011;64133;56.002;37.208;2022-11-15T04:28:23;4.60;;;1.05;;
75548;SDS011;64133;56.002;37.208;2022-11-15T04:33:28;6.37;;;0.93;;
75548;SDS011;64133;56.002;37.208;2022-11-15T04:38:33;3.25;;;1.10;;
75548;SDS011;64133;56.002;37.208;2022-11-15T04:43:38;3.40;;;0.55;;
75548;SDS011;64133;56.002;37.208;2022-11-15T04:48:44;1.82;;;0.90;;
75548;SDS011;64133;56.002;37.208;2022-11-15T04:53:50;5.03;;;1.67;;
75548;SDS011;64133;56.002;37.208;2022-11-15T04:58:54;4.55;;;1.15;;
75548;SDS011;64133;56.002;37.208;2022-11-15T05:03:59;3.40;;;1.10;;
75548;SDS011;64133;56.002;37.208;2022-11-15T05:14:26;4.87;;;1.42;;
75548;SDS011;64133;56.002;37.208;2022-11-15T05:19:31;7.28;;;1.20;;
75548;SDS011;64133;56.002;37.208;2022-11-15T05:24:36;5.28;;;1.07;;
75548;SDS011;64133;56.002;37.208;2022-11-15T05:29:41;5.42;;;1.02;;
75548;SDS011;64133;56.002;37.208;2022-11-15T05:34:46;2.98;;;0.80;;
75548;SDS011;64133;56.002;37.208;2022-11-15T05:39:51;12.45;;;1.60;;
75548;SDS011;64133;56.002;37.208;2022-11-15T05:44:56;4.37;;;1.22;;
75548;SDS011;64133;56.002;37.208;2022-11-15T05:50:01;3.47;;;1.27;;
75548;SDS011;64133;56.002;37.208;2022-11-15T05:55:07;7.58;;;1.50;;
75548;SDS011;64133;56.002;37.208;2022-11-15T06:05:18;8.33;;;1.17;;
75548;SDS011;64133;56.002;37.208;2022-11-15T06:10:23;4.75;;;1.35;;
75548;SDS011;64133;56.002;37.208;2022-11-15T06:15:28;3.58;;;1.12;;
75548;SDS011;64133;56.002;37.208;2022-11-15T06:20:33;6.40;;;0.90;;
75548;SDS011;64133;56.002;37.208;2022-11-15T06:25:38;4.72;;;1.40;;
75548;SDS011;64133;56.002;37.208;2022-11-15T06:30:43;5.50;;;1.20;;
75548;SDS011;64133;56.002;37.208;2022-11-15T06:35:48;4.35;;;0.90;;
75548;SDS011;64133;56.002;37.208;2022-11-15T06:40:53;4.12;;;1.15;;
75548;SDS011;64133;56.002;37.208;2022-11-15T06:45:58;2.15;;;0.78;;
75548;SDS011;64133;56.002;37.208;2022-11-15T06:51:03;3.83;;;1.35;;
75548;SDS011;64133;56.002;37.208;2022-11-15T06:56:08;5.22;;;0.95;;
75548;SDS011;64133;56.002;37.208;2022-11-15T07:01:13;3.20;;;1.12;;
75548;SDS011;64133;56.002;37.208;2022-11-15T07:06:18;4.45;;;0.75;;
75548;SDS011;64133;56.002;37.208;2022-11-15T07:11:23;3.02;;;0.65;;
75548;SDS011;64133;56.002;37.208;2022-11-15T07:16:28;4.12;;;1.25;;
75548;SDS011;64133;56.002;37.208;2022-11-15T07:21:35;3.87;;;1.10;;
75548;SDS011;64133;56.002;37.208;2022-11-15T07:26:40;3.05;;;0.80;;
75548;SDS011;64133;56.002;37.208;2022-11-15T07:31:45;8.85;;;1.25;;
75548;SDS011;64133;56.002;37.208;2022-11-15T07:36:49;2.02;;;0.95;;
75548;SDS011;64133;56.002;37.208;2022-11-15T07:41:54;2.12;;;0.90;;
75548;SDS011;64133;56.002;37.208;2022-11-15T07:47:18;2.87;;;1.12;;
75548;SDS011;64133;56.002;37.208;2022-11-15T07:52:23;1.92;;;0.75;;
75548;SDS011;64133;56.002;37.208;2022-11-15T07:57:28;3.47;;;1.37;;
75548;SDS011;64133;56.002;37.208;2022-11-15T08:02:33;3.33;;;0.90;;
75548;SDS011;64133;56.002;37.208;2022-11-15T08:07:38;6.75;;;1.30;;
75548;SDS011;64133;56.002;37.208;2022-11-15T08:12:43;4.80;;;1.20;;
75548;SDS011;64133;56.002;37.208;2022-11-15T08:17:48;4.83;;;1.32;;
75548;SDS011;64133;56.002;37.208;2022-11-15T08:22:57;7.10;;;2.02;;
75548;SDS011;64133;56.002;37.208;2022-11-15T08:28:03;2.98;;;0.82;;
75548;SDS011;64133;56.002;37.208;2022-11-15T08:33:09;1.87;;;0.70;;
75548;SDS011;64133;56.002;37.208;2022-11-15T08:38:14;3.75;;;1.05;;
75548;SDS011;64133;56.002;37.208;2022-11-15T08:48:36;2.42;;;1.20;;
75548;SDS011;64133;56.002;37.208;2022-11-15T08:53:41;5.97;;;1.37;;
75548;SDS011;64133;56.002;37.208;2022-11-15T08:58:46;5.20;;;1.32;;
75548;SDS011;64133;56.002;37.208;2022-11-15T09:03:51;3.00;;;1.12;;
75548;SDS011;64133;56.002;37.208;2022-11-15T09:08:56;4.83;;;1.27;;
75548;SDS011;64133;56.002;37.208;2022-11-15T09:14:01;5.10;;;1.42;;
75548;SDS011;64133;56.002;37.208;2022-11-15T09:19:06;5.30;;;0.98;;
75548;SDS011;64133;56.002;37.208;2022-11-15T09:24:10;4.10;;;1.55;;
75548;SDS011;64133;56.002;37.208;2022-11-15T09:29:16;5.33;;;2.05;;
75548;SDS011;64133;56.002;37.208;2022-11-15T09:34:20;5.83;;;1.72;;
75548;SDS011;64133;56.002;37.208;2022-11-15T09:39:25;7.90;;;2.15;;
75548;SDS011;64133;56.002;37.208;2022-11-15T09:44:35;6.25;;;1.70;;
75548;SDS011;64133;56.002;37.208;2022-11-15T09:49:57;5.10;;;1.37;;
75548;SDS011;64133;56.002;37.208;2022-11-15T09:55:02;4.17;;;1.67;;
75548;SDS011;64133;56.002;37.208;2022-11-15T10:00:11;7.60;;;1.90;;
75548;SDS011;64133;56.002;37.208;2022-11-15T10:05:15;4.37;;;1.50;;
75548;SDS011;64133;56.002;37.208;2022-11-15T10:10:22;1.98;;;0.68;;
75548;SDS011;64133;56.002;37.208;2022-11-15T10:15:27;4.08;;;1.15;;
75548;SDS011;64133;56.002;37.208;2022-11-15T10:20:33;6.70;;;1.47;;
75548;SDS011;64133;56.002;37.208;2022-11-15T10:25:37;3.58;;;0.95;;
75548;SDS011;64133;56.002;37.208;2022-11-15T10:30:44;8.65;;;2.75;;
75548;SDS011;64133;56.002;37.208;2022-11-15T10:35:47;4.17;;;1.12;;
75548;SDS011;64133;56.002;37.208;2022-11-15T10:40:53;6.78;;;1.50;;
75548;SDS011;64133;56.002;37.208;2022-11-15T10:46:00;6.00;;;1.30;;
75548;SDS011;64133;56.002;37.208;2022-11-15T10:51:05;4.62;;;1.72;;
75548;SDS011;64133;56.002;37.208;2022-11-15T10:56:11;6.37;;;2.40;;
75548;SDS011;64133;56.002;37.208;2022-11-15T11:01:16;6.30;;;1.85;;
75548;SDS011;64133;56.002;37.208;2022-11-15T11:06:20;2.55;;;1.60;;
75548;SDS011;64133;56.002;37.208;2022-11-15T11:11:26;3.60;;;1.42;;
75548;SDS011;64133;56.002;37.208;2022-11-15T11:16:42;6.33;;;1.85;;
75548;SDS011;64133;56.002;37.208;2022-11-15T11:21:49;5.15;;;1.95;;
75548;SDS011;64133;56.002;37.208;2022-11-15T11:26:58;6.25;;;2.00;;
75548;SDS011;64133;56.002;37.208;2022-11-15T11:32:06;5.00;;;1.92;;
75548;SDS011;64133;56.002;37.208;2022-11-15T11:37:11;5.40;;;2.40;;
75548;SDS011;64133;56.002;37.208;2022-11-15T11:42:17;5.28;;;1.87;;
75548;SDS011;64133;56.002;37.208;2022-11-15T11:47:23;5.17;;;2.27;;
75548;SDS011;64133;56.002;37.208;2022-11-15T11:52:28;4.67;;;1.92;;
75548;SDS011;64133;56.002;37.208;2022-11-15T12:02:43;3.42;;;1.95;;
75548;SDS011;64133;56.002;37.208;2022-11-15T12:07:47;7.25;;;2.42;;
75548;SDS011;64133;56.002;37.208;2022-11-15T12:12:55;4.17;;;1.92;;
75548;SDS011;64133;56.002;37.208;2022-11-15T12:18:00;8.08;;;2.87;;
75548;SDS011;64133;56.002;37.208;2022-11-15T12:23:05;4.28;;;2.45;;
75548;SDS011;64133;56.002;37.208;2022-11-15T12:28:12;4.90;;;2.10;;
75548;SDS011;64133;56.002;37.208;2022-11-15T12:33:32;7.85;;;2.70;;
75548;SDS011;64133;56.002;37.208;2022-11-15T12:38:51;7.40;;;3.33;;
75548;SDS011;64133;56.002;37.208;2022-11-15T12:43:59;15.15;;;3.55;;
75548;SDS011;64133;56.002;37.208;2022-11-15T12:49:07;4.95;;;3.08;;
75548;SDS011;64133;56.002;37.208;2022-11-15T12:59:55;9.95;;;3.12;;
75548;SDS011;64133;56.002;37.208;2022-11-15T13:10:31;9.05;;;3.72;;
75548;SDS011;64133;56.002;37.208;2022-11-15T13:21:01;3.33;;;1.42;;
75548;SDS011;64133;56.002;37.208;2022-11-15T13:26:12;8.20;;;2.92;;
75548;SDS011;64133;56.002;37.208;2022-11-15T13:31:28;8.93;;;3.55;;
75548;SDS011;64133;56.002;37.208;2022-11-15T13:36:33;5.58;;;3.08;;
75548;SDS011;64133;56.002;37.208;2022-11-15T13:41:44;2.98;;;1.42;;
75548;SDS011;64133;56.002;37.208;2022-11-15T13:46:49;8.58;;;3.20;;
75548;SDS011;64133;56.002;37.208;2022-11-15T13:51:57;6.67;;;3.67;;
75548;SDS011;64133;56.002;37.208;2022-11-15T13:57:03;6.25;;;2.85;;
75548;SDS011;64133;56.002;37.208;2022-11-15T14:02:11;7.62;;;2.47;;
75548;SDS011;64133;56.002;37.208;2022-11-15T14:07:17;6.28;;;3.00;;
75548;SDS011;64133;56.002;37.208;2022-11-15T14:12:23;7.50;;;3.00;;
75548;SDS011;64133;56.002;37.208;2022-11-15T14:17:35;6.97;;;3.25;;
75548;SDS011;64133;56.002;37.208;2022-11-15T14:22:51;8.58;;;3.85;;
75548;SDS011;64133;56.002;37.208;2022-11-15T14:28:10;8.25;;;4.28;;
75548;SDS011;64133;56.002;37.208;2022-11-15T14:33:19;8.80;;;4.05;;
75548;SDS011;64133;56.002;37.208;2022-11-15T14:38:23;15.20;;;5.05;;
75548;SDS011;64133;56.002;37.208;2022-11-15T14:43:28;13.32;;;4.25;;
75548;SDS011;64133;56.002;37.208;2022-11-15T14:48:33;11.90;;;4.53;;
75548;SDS011;64133;56.002;37.208;2022-11-15T14:53:39;3.85;;;1.92;;
75548;SDS011;64133;56.002;37.208;2022-11-15T14:58:44;7.62;;;3.20;;
75548;SDS011;64133;56.002;37.208;2022-11-15T15:03:49;6.70;;;3.50;;
75548;SDS011;64133;56.002;37.208;2022-11-15T15:08:54;7.75;;;4.05;;
75548;SDS011;64133;56.002;37.208;2022-11-15T15:13:59;13.20;;;2.10;;
75548;SDS011;64133;56.002;37.208;2022-11-15T15:19:04;9.85;;;4.53;;
75548;SDS011;64133;56.002;37.208;2022-11-15T15:24:09;8.48;;;5.28;;
75548;SDS011;64133;56.002;37.208;2022-11-15T15:29:15;6.50;;;2.90;;
75548;SDS011;64133;56.002;37.208;2022-11-15T15:34:29;6.62;;;3.72;;
75548;SDS011;64133;56.002;37.208;2022-11-15T15:39:34;9.30;;;1.90;;
75548;SDS011;64133;56.002;37.208;2022-11-15T15:44:39;7.72;;;4.42;;
75548;SDS011;64133;56.002;37.208;2022-11-15T15:49:44;9.28;;;4.70;;
75548;SDS011;64133;56.002;37.208;2022-11-15T15:54:49;7.95;;;4.55;;
75548;SDS011;64133;56.002;37.208;2022-11-15T15:59:54;14.23;;;5.05;;
75548;SDS011;64133;56.002;37.208;2022-11-15T16:04:59;7.87;;;4.12;;
75548;SDS011;64133;56.002;37.208;2022-11-15T16:10:10;12.95;;;5.83;;
75548;SDS011;64133;56.002;37.208;2022-11-15T16:15:19;6.17;;;2.25;;
75548;SDS011;64133;56.002;37.208;2022-11-15T16:20:35;7.55;;;4.78;;
75548;SDS011;64133;56.002;37.208;2022-11-15T16:25:39;12.93;;;6.03;;
75548;SDS011;64133;56.002;37.208;2022-11-15T16:30:44;7.17;;;3.60;;
75548;SDS011;64133;56.002;37.208;2022-11-15T16:35:49;5.58;;;3.17;;
75548;SDS011;64133;56.002;37.208;2022-11-15T16:40:54;10.48;;;4.80;;
75548;SDS011;64133;56.002;37.208;2022-11-15T16:45:59;7.50;;;4.20;;
75548;SDS011;64133;56.002;37.208;2022-11-15T16:51:05;6.72;;;3.60;;
75548;SDS011;64133;56.002;37.208;2022-11-15T16:56:14;9.08;;;4.17;;
75548;SDS011;64133;56.002;37.208;2022-11-15T17:01:21;5.00;;;2.67;;
75548;SDS011;64133;56.002;37.208;2022-11-15T17:06:26;9.78;;;4.47;;
75548;SDS011;64133;56.002;37.208;2022-11-15T17:11:31;8.73;;;4.67;;
75548;SDS011;64133;56.002;37.208;2022-11-15T17:16:36;12.25;;;6.90;;
75548;SDS011;64133;56.002;37.208;2022-11-15T17:21:41;14.33;;;4.95;;
75548;SDS011;64133;56.002;37.208;2022-11-15T17:26:54;2.85;;;1.57;;
75548;SDS011;64133;56.002;37.208;2022-11-15T17:31:59;6.53;;;3.47;;
75548;SDS011;64133;56.002;37.208;2022-11-15T17:37:04;7.58;;;3.67;;
75548;SDS011;64133;56.002;37.208;2022-11-15T17:42:09;4.20;;;2.08;;
75548;SDS011;64133;56.002;37.208;2022-11-15T17:47:14;8.65;;;4.95;;
75548;SDS011;64133;56.002;37.208;2022-11-15T17:52:19;10.75;;;4.67;;
75548;SDS011;64133;56.002;37.208;2022-11-15T17:57:24;10.93;;;4.58;;
75548;SDS011;64133;56.002;37.208;2022-11-15T18:02:29;8.20;;;3.72;;
75548;SDS011;64133;56.002;37.208;2022-11-15T18:07:34;6.80;;;2.62;;
75548;SDS011;64133;56.002;37.208;2022-11-15T18:12:39;4.33;;;2.83;;
75548;SDS011;64133;56.002;37.208;2022-11-15T18:17:44;5.78;;;3.12;;
75548;SDS011;64133;56.002;37.208;2022-11-15T18:22:52;8.28;;;4.20;;
75548;SDS011;64133;56.002;37.208;2022-11-15T18:27:57;9.08;;;3.95;;
75548;SDS011;64133;56.002;37.208;2022-11-15T18:33:02;9.08;;;4.83;;
75548;SDS011;64133;56.002;37.208;2022-11-15T18:38:07;18.62;;;10.25;;
75548;SDS011;64133;56.002;37.208;2022-11-15T18:43:12;10.60;;;5.15;;
75548;SDS011;64133;56.002;37.208;2022-11-15T18:48:17;11.08;;;5.80;;
75548;SDS011;64133;56.002;37.208;2022-11-15T18:53:22;13.93;;;7.42;;
75548;SDS011;64133;56.002;37.208;2022-11-15T18:58:28;12.98;;;7.65;;
75548;SDS011;64133;56.002;37.208;2022-11-15T19:03:34;13.98;;;7.65;;
75548;SDS011;64133;56.002;37.208;2022-11-15T19:08:39;4.33;;;2.55;;
75548;SDS011;64133;56.002;37.208;2022-11-15T19:13:43;12.00;;;4.05;;
75548;SDS011;64133;56.002;37.208;2022-11-15T19:18:49;17.02;;;8.63;;
75548;SDS011;64133;56.002;37.208;2022-11-15T19:23:56;12.23;;;6.45;;
75548;SDS011;64133;56.002;37.208;2022-11-15T19:29:01;10.48;;;6.03;;
75548;SDS011;64133;56.002;37.208;2022-11-15T19:34:09;11.75;;;5.97;;
75548;SDS011;64133;56.002;37.208;2022-11-15T19:39:14;13.68;;;7.08;;
75548;SDS011;64133;56.002;37.208;2022-11-15T19:44:18;9.63;;;5.42;;
75548;SDS011;64133;56.002;37.208;2022-11-15T19:49:23;14.45;;;5.87;;
75548;SDS011;64133;56.002;37.208;2022-11-15T19:54:28;9.45;;;5.10;;
75548;SDS011;64133;56.002;37.208;2022-11-15T19:59:33;14.58;;;7.58;;
75548;SDS011;64133;56.002;37.208;2022-11-15T20:04:38;10.60;;;5.65;;
75548;SDS011;64133;56.002;37.208;2022-11-15T20:09:43;14.47;;;7.35;;
75548;SDS011;64133;56.002;37.208;2022-11-15T20:14:48;11.68;;;5.50;;
75548;SDS011;64133;56.002;37.208;2022-11-15T20:19:53;19.05;;;8.00;;
75548;SDS011;64133;56.002;37.208;2022-11-15T20:24:58;11.63;;;5.35;;
75548;SDS011;64133;56.002;37.208;2022-11-15T20:30:03;12.98;;;6.58;;
75548;SDS011;64133;56.002;37.208;2022-11-15T20:35:09;14.50;;;8.08;;
75548;SDS011;64133;56.002;37.208;2022-11-15T20:40:14;11.48;;;4.70;;
75548;SDS011;64133;56.002;37.208;2022-11-15T20:45:20;11.28;;;4.03;;
75548;SDS011;64133;56.002;37.208;2022-11-15T20:50:25;12.20;;;4.85;;
75548;SDS011;64133;56.002;37.208;2022-11-15T20:55:30;10.23;;;5.85;;
75548;SDS011;64133;56.002;37.208;2022-11-15T21:00:35;9.30;;;5.00;;
75548;SDS011;64133;56.002;37.208;2022-11-15T21:05:40;6.90;;;3.10;;
75548;SDS011;64133;56.002;37.208;2022-11-15T21:10:47;9.55;;;4.37;;
75548;SDS011;64133;56.002;37.208;2022-11-15T21:16:07;28.32;;;10.45;;
75548;SDS011;64133;56.002;37.208;2022-11-15T21:21:12;8.08;;;3.95;;
75548;SDS011;64133;56.002;37.208;2022-11-15T21:26:17;12.65;;;6.08;;
75548;SDS011;64133;56.002;37.208;2022-11-15T21:31:22;6.83;;;3.30;;
75548;SDS011;64133;56.002;37.208;2022-11-15T21:36:28;9.93;;;4.53;;
75548;SDS011;64133;56.002;37.208;2022-11-15T21:41:33;9.75;;;4.90;;
75548;SDS011;64133;56.002;37.208;2022-11-15T21:46:38;10.90;;;6.12;;
75548;SDS011;64133;56.002;37.208;2022-11-15T21:51:43;5.12;;;1.65;;
75548;SDS011;64133;56.002;37.208;2022-11-15T21:56:48;15.28;;;7.72;;
75548;SDS011;64133;56.002;37.208;2022-11-15T22:01:52;8.93;;;4.47;;
75548;SDS011;64133;56.002;37.208;2022-11-15T22:07:15;9.48;;;4.92;;
75548;SDS011;64133;56.002;37.208;2022-11-15T22:12:20;17.00;;;9.63;;
75548;SDS011;64133;56.002;37.208;2022-11-15T22:17:25;14.35;;;7.17;;
75548;SDS011;64133;56.002;37.208;2022-11-15T22:22:30;16.67;;;7.05;;
75548;SDS011;64133;56.002;37.208;2022-11-15T22:27:35;9.25;;;4.53;;
75548;SDS011;64133;56.002;37.208;2022-11-15T22:32:40;8.75;;;2.80;;
75548;SDS011;64133;56.002;37.208;2022-11-15T22:37:45;16.40;;;7.67;;
75548;SDS011;64133;56.002;37.208;2022-11-15T22:42:50;7.10;;;2.85;;
75548;SDS011;64133;56.002;37.208;2022-11-15T22:47:55;16.27;;;5.85;;
75548;SDS011;64133;56.002;37.208;2022-11-15T22:53:00;11.90;;;5.20;;
75548;SDS011;64133;56.002;37.208;2022-11-15T22:58:05;9.93;;;5.78;;
75548;SDS011;64133;56.002;37.208;2022-11-15T23:03:10;4.58;;;1.90;;
75548;SDS011;64133;56.002;37.208;2022-11-15T23:08:15;6.37;;;2.62;;
75548;SDS011;64133;56.002;37.208;2022-11-15T23:13:20;8.80;;;4.58;;
75548;SDS011;64133;56.002;37.208;2022-11-15T23:18:25;14.53;;;5.95;;
75548;SDS011;64133;56.002;37.208;2022-11-15T23:23:31;9.20;;;5.65;;
75548;SDS011;64133;56.002;37.208;2022-11-15T23:28:35;8.95;;;4.80;;
75548;SDS011;64133;56.002;37.208;2022-11-15T23:33:40;14.87;;;8.00;;
75548;SDS011;64133;56.002;37.208;2022-11-15T23:39:01;9.05;;;3.67;;
75548;SDS011;64133;56.002;37.208;2022-11-15T23:44:06;12.55;;;4.87;;
75548;SDS011;64133;56.002;37.208;2022-11-15T23:49:11;10.45;;;6.47;;
75548;SDS011;64133;56.002;37.208;2022-11-15T23:54:16;10.60;;;5.45;;
75548;SDS011;64133;56.002;37.208;2022-11-15T23:59:21;2.90;;;1.75;;
